Time;durP1;ratioP1;P1;durP2;ratioP2;P2;SDS_P1;SDS_P2;PMS_P1;PMS_P2;Temp;Humidity;BMP_temperature;BMP_pressure;BME280_temperature;BME280_humidity;BME280_pressure;Samples;Min_cycle;Max_cycle;Signal;HPM_P1;HPM_P2
2022/01/25 00:24:16;;;;;;;21.52;13.27;;;5.40;1.00;;;;;;5009473;28;20208;-79
2022/01/25 00:24:32;;;;;;;20.23;14.70;;;5.30;1.00;;;;;;5019425;28;20357;-79
2022/01/25 00:27:09;;;;;;;19.08;13.57;;;5.30;1.00;;;;;;5014351;28;20234;-80
2022/01/25 00:29:49;;;;;;;22.65;15.77;;;5.30;1.00;;;;;;5014223;28;20242;-80
2022/01/25 00:32:17;;;;;;;25.08;15.80;;;5.20;1.00;;;;;;5017911;28;20234;-82
2022/01/25 00:34:45;;;;;;;17.02;12.63;;;5.20;1.00;;;;;;4984703;28;20329;-81
2022/01/25 00:37:12;;;;;;;20.45;14.18;;;5.20;1.00;;;;;;4989967;28;20231;-77
2022/01/25 00:39:40;;;;;;;19.60;14.43;;;5.30;1.00;;;;;;5015302;28;20246;-79
2022/01/25 00:42:08;;;;;;;20.35;13.85;;;5.30;1.00;;;;;;5007911;28;20223;-78
2022/01/25 00:44:37;;;;;;;22.92;13.60;;;5.20;1.00;;;;;;5013063;28;20306;-77
2022/01/25 00:47:06;;;;;;;20.60;15.07;;;5.20;1.00;;;;;;5015544;28;20695;-78
2022/01/25 00:49:36;;;;;;;20.10;14.90;;;5.30;1.00;;;;;;5016203;28;20402;-79
2022/01/25 00:52:18;;;;;;;20.65;14.02;;;5.30;1.00;;;;;;5010831;28;20207;-79
2022/01/25 00:54:46;;;;;;;19.85;13.50;;;5.30;1.00;;;;;;5012193;28;20227;-79
2022/01/25 00:57:13;;;;;;;18.95;13.75;;;5.40;1.00;;;;;;5021446;28;20214;-78
2022/01/25 00:59:39;;;;;;;20.15;14.55;;;5.30;1.00;;;;;;5023246;28;20290;-78
2022/01/25 01:02:08;;;;;;;22.52;14.40;;;5.30;1.00;;;;;;5012096;28;20219;-81
2022/01/25 01:04:35;;;;;;;21.05;14.82;;;5.40;1.00;;;;;;5011583;28;20774;-79
2022/01/25 01:07:07;;;;;;;21.98;15.13;;;5.40;1.00;;;;;;5012531;28;20312;-78
2022/01/25 01:09:37;;;;;;;21.25;14.55;;;5.40;1.00;;;;;;5004979;28;22697;-79
2022/01/25 01:12:11;;;;;;;19.55;14.05;;;5.40;1.00;;;;;;4987873;28;20281;-80
2022/01/25 01:14:57;;;;;;;20.20;15.57;;;5.40;1.00;;;;;;4986536;28;20313;-79
2022/01/25 01:28:51;;;;;;;22.00;14.98;;;5.40;1.00;;;;;;4990127;28;20223;-79
2022/01/25 01:29:15;;;;;;;21.23;13.77;;;5.30;1.00;;;;;;4997207;28;20237;-80
2022/01/25 01:35:08;;;;;;;21.27;14.13;;;5.40;1.00;;;;;;4989231;28;20246;-80
2022/01/25 01:38:05;;;;;;;21.17;14.45;;;5.30;1.00;;;;;;4993235;28;21002;-80
2022/01/25 01:43:30;;;;;;;20.50;14.02;;;5.40;1.00;;;;;;4986489;28;20277;-79
2022/01/25 01:46:04;;;;;;;21.10;14.35;;;5.40;1.00;;;;;;4991691;28;20218;-79
2022/01/25 01:48:34;;;;;;;19.67;13.80;;;5.40;1.00;;;;;;4989501;28;20218;-81
2022/01/25 01:51:07;;;;;;;21.60;14.98;;;5.40;1.00;;;;;;4991255;28;20274;-79
2022/01/25 01:53:35;;;;;;;20.38;13.95;;;5.50;1.00;;;;;;4988604;28;20229;-80
2022/01/25 01:56:04;;;;;;;21.00;14.48;;;5.50;1.00;;;;;;4996782;28;20215;-79
2022/01/25 01:58:31;;;;;;;20.25;14.05;;;5.40;1.00;;;;;;5022532;28;20207;-78
2022/01/25 02:00:58;;;;;;;23.83;15.05;;;5.50;1.00;;;;;;5020452;28;20500;-78
2022/01/25 02:03:24;;;;;;;22.92;15.23;;;5.50;1.00;;;;;;4999201;28;20476;-78
2022/01/25 02:05:51;;;;;;;21.98;15.40;;;5.50;1.00;;;;;;5011930;28;20235;-79
2022/01/25 02:08:18;;;;;;;24.83;17.50;;;5.40;1.00;;;;;;5016213;28;20283;-78
2022/01/25 02:10:45;;;;;;;21.00;15.05;;;5.40;1.00;;;;;;5012396;28;20254;-79
2022/01/25 02:13:13;;;;;;;21.50;15.38;;;5.40;1.00;;;;;;4990203;28;21702;-80
2022/01/25 02:15:45;;;;;;;24.02;14.65;;;5.40;1.00;;;;;;5004708;28;20230;-81
2022/01/25 02:23:44;;;;;;;27.27;16.98;;;5.30;1.00;;;;;;4992850;28;21065;-80
2022/01/25 02:26:12;;;;;;;29.15;16.92;;;5.30;1.00;;;;;;4998227;28;20998;-80
2022/01/25 02:28:42;;;;;;;27.70;17.20;;;5.20;1.00;;;;;;4993922;28;20262;-79
2022/01/25 02:31:11;;;;;;;25.13;16.08;;;5.20;1.00;;;;;;5001071;28;20270;-79
2022/01/25 02:33:38;;;;;;;26.45;16.98;;;5.20;1.00;;;;;;4990357;28;20655;-79
2022/01/25 02:36:11;;;;;;;27.20;18.60;;;5.20;1.00;;;;;;4992916;28;20286;-79
2022/01/25 02:38:38;;;;;;;27.60;17.15;;;5.10;1.00;;;;;;5005704;28;20215;-80
2022/01/25 02:41:05;;;;;;;26.95;16.83;;;5.10;1.00;;;;;;5004049;28;20223;-78
2022/01/25 02:43:34;;;;;;;29.63;18.25;;;5.10;1.00;;;;;;4998767;28;21135;-80
2022/01/25 02:48:54;;;;;;;27.00;18.05;;;5.10;1.00;;;;;;4990336;28;20251;-79
2022/01/25 02:51:24;;;;;;;29.15;18.23;;;5.20;1.00;;;;;;4995804;28;20313;-79
2022/01/25 02:53:51;;;;;;;31.38;19.00;;;5.10;1.00;;;;;;4994597;28;20239;-78
2022/01/25 02:56:19;;;;;;;34.28;21.08;;;5.20;1.00;;;;;;5015907;28;20230;-79
2022/01/25 02:58:46;;;;;;;28.05;19.50;;;5.20;1.00;;;;;;5005321;28;20264;-79
2022/01/25 03:01:13;;;;;;;32.95;19.80;;;5.20;1.00;;;;;;4997476;28;20311;-79
2022/01/25 03:03:40;;;;;;;35.63;19.40;;;5.20;1.00;;;;;;4995863;28;20220;-79
2022/01/25 03:06:07;;;;;;;33.58;19.27;;;5.10;1.00;;;;;;4993665;28;20348;-78
2022/01/25 03:08:35;;;;;;;33.20;20.70;;;5.00;1.00;;;;;;4981890;28;20292;-79
2022/01/25 03:11:03;;;;;;;32.40;19.60;;;5.00;1.00;;;;;;4995441;28;21059;-79
2022/01/25 03:13:33;;;;;;;32.63;18.92;;;4.90;1.00;;;;;;5003618;28;20223;-78
2022/01/25 03:16:07;;;;;;;32.78;19.45;;;4.90;1.00;;;;;;5003619;28;20230;-79
2022/01/25 03:18:41;;;;;;;36.15;21.77;;;4.80;1.00;;;;;;4998651;28;20782;-79
2022/01/25 03:21:22;;;;;;;32.83;20.80;;;4.80;1.00;;;;;;4995338;28;20226;-79
2022/01/25 03:23:51;;;;;;;33.45;20.45;;;4.80;1.00;;;;;;4994806;28;20820;-78
2022/01/25 03:26:18;;;;;;;33.60;21.50;;;4.80;1.00;;;;;;4995417;28;20238;-80
2022/01/25 03:28:45;;;;;;;37.10;22.50;;;4.80;1.00;;;;;;4996363;28;20266;-83
2022/01/25 03:31:12;;;;;;;32.95;21.13;;;4.80;1.00;;;;;;4995582;28;20223;-83
2022/01/25 03:33:39;;;;;;;33.75;22.00;;;4.80;1.00;;;;;;4999343;28;20219;-83
2022/01/25 03:36:07;;;;;;;30.15;19.73;;;4.80;1.00;;;;;;5000146;28;20314;-84
2022/01/25 03:38:35;;;;;;;35.15;20.92;;;4.70;1.00;;;;;;4999259;28;20215;-84
2022/01/25 03:41:05;;;;;;;35.28;19.40;;;4.70;1.00;;;;;;4996682;28;20219;-85
2022/01/25 03:43:32;;;;;;;30.88;19.42;;;4.70;1.00;;;;;;5001264;28;20225;-84
2022/01/25 03:46:03;;;;;;;37.85;20.88;;;4.70;1.00;;;;;;5021072;28;20231;-85
2022/01/25 03:51:14;;;;;;;26.42;17.88;;;4.60;1.00;;;;;;5000793;28;20236;-82
2022/01/25 03:53:41;;;;;;;31.20;19.42;;;4.50;1.00;;;;;;5004000;28;20233;-85
2022/01/25 03:56:10;;;;;;;29.83;18.52;;;4.50;1.00;;;;;;5005076;28;21144;-82
2022/01/25 03:58:37;;;;;;;34.60;19.13;;;4.50;1.00;;;;;;5008799;28;20215;-82
2022/01/25 04:01:03;;;;;;;30.92;18.83;;;4.50;1.00;;;;;;5004532;28;20223;-84
2022/01/25 04:03:35;;;;;;;32.13;19.45;;;4.50;1.00;;;;;;5001754;28;20318;-80
2022/01/25 04:06:02;;;;;;;29.20;17.40;;;4.60;1.00;;;;;;4998986;28;20231;-80
2022/01/25 04:08:29;;;;;;;31.58;18.48;;;4.60;1.00;;;;;;5004233;28;20219;-81
2022/01/25 04:10:56;;;;;;;30.25;19.73;;;4.60;1.00;;;;;;5003430;28;20492;-81
2022/01/25 04:13:24;;;;;;;28.48;17.40;;;4.60;1.00;;;;;;4996724;28;20219;-80
2022/01/25 04:15:54;;;;;;;33.78;17.25;;;4.60;1.00;;;;;;4999814;28;20246;-80
2022/01/25 04:18:30;;;;;;;30.85;16.77;;;4.60;1.00;;;;;;5007939;28;20231;-78
2022/01/25 04:21:04;;;;;;;26.67;16.50;;;4.60;1.00;;;;;;5017233;28;20227;-80
2022/01/25 04:26:14;;;;;;;25.45;16.92;;;4.70;1.00;;;;;;4956170;28;20250;-80
2022/01/25 04:28:42;;;;;;;27.08;18.02;;;4.80;1.00;;;;;;5018138;28;20265;-79
2022/01/25 04:31:09;;;;;;;31.52;20.05;;;4.80;1.00;;;;;;5015952;28;20302;-78
2022/01/25 04:33:44;;;;;;;34.03;18.00;;;4.80;1.00;;;;;;5016588;28;20227;-79
2022/01/25 04:36:38;;;;;;;32.13;19.50;;;4.80;1.00;;;;;;5004028;28;20234;-81
2022/01/25 04:50:21;;;;;;;31.90;18.33;;;4.90;1.00;;;;;;4983097;28;20343;-81
2022/01/25 04:52:50;;;;;;;24.08;14.90;;;4.90;1.00;;;;;;5006657;28;20230;-81
2022/01/25 04:55:23;;;;;;;29.00;16.50;;;4.90;1.00;;;;;;5003838;28;20227;-79
2022/01/25 04:57:56;;;;;;;27.13;17.15;;;4.90;1.00;;;;;;5004702;28;21531;-79
2022/01/25 05:00:25;;;;;;;24.30;15.55;;;4.90;1.00;;;;;;5001296;28;20227;-79
2022/01/25 05:02:56;;;;;;;27.13;16.40;;;5.00;1.00;;;;;;5003525;28;20354;-81
2022/01/25 05:05:29;;;;;;;22.25;14.35;;;5.00;1.00;;;;;;4999505;28;20303;-81
2022/01/25 05:08:02;;;;;;;27.55;15.10;;;5.00;1.00;;;;;;5005499;28;20792;-81
2022/01/25 05:10:31;;;;;;;23.60;13.95;;;5.00;1.00;;;;;;5002648;28;20242;-80
2022/01/25 05:13:14;;;;;;;27.40;16.73;;;4.90;1.00;;;;;;5004348;28;20224;-81
2022/01/25 05:18:35;;;;;;;24.27;14.25;;;4.90;1.00;;;;;;5000856;28;20242;-80
2022/01/25 05:23:46;;;;;;;27.23;16.10;;;5.00;1.00;;;;;;5006856;28;20259;-79
2022/01/25 05:26:13;;;;;;;25.73;16.27;;;5.00;1.00;;;;;;5018489;28;20266;-80
2022/01/25 05:28:40;;;;;;;26.08;14.50;;;5.00;1.00;;;;;;5020123;28;20226;-79
2022/01/25 05:31:09;;;;;;;25.05;15.75;;;5.00;1.00;;;;;;4993535;28;20238;-81
2022/01/25 05:33:36;;;;;;;25.95;14.73;;;5.10;1.00;;;;;;4995653;28;21158;-81
2022/01/25 05:36:03;;;;;;;26.08;17.05;;;5.00;1.00;;;;;;4991566;28;20234;-79
2022/01/25 05:38:29;;;;;;;25.33;16.48;;;5.00;1.00;;;;;;4998566;28;20223;-80
2022/01/25 05:40:59;;;;;;;25.30;16.25;;;5.00;1.00;;;;;;5002681;28;20223;-83
2022/01/25 05:46:15;;;;;;;25.65;13.38;;;5.00;1.00;;;;;;4998878;28;20223;-84
2022/01/25 05:48:42;;;;;;;28.38;17.52;;;4.90;1.00;;;;;;4994503;28;20227;-84
2022/01/25 05:51:10;;;;;;;26.65;16.55;;;4.90;1.00;;;;;;4999306;28;20749;-83
2022/01/25 05:53:37;;;;;;;24.63;16.17;;;4.90;1.00;;;;;;4999443;28;21310;-84
2022/01/25 05:56:04;;;;;;;23.70;16.48;;;4.90;1.00;;;;;;4996516;28;20228;-84
2022/01/25 05:58:31;;;;;;;31.23;17.70;;;4.90;1.00;;;;;;5003646;28;20806;-80
2022/01/25 06:00:57;;;;;;;23.60;15.75;;;5.00;1.00;;;;;;5001485;28;20684;-80
2022/01/25 06:03:25;;;;;;;22.73;15.30;;;5.00;1.00;;;;;;4998869;28;20223;-80
2022/01/25 06:05:52;;;;;;;27.25;16.90;;;5.00;1.00;;;;;;5014060;28;20245;-81
2022/01/25 06:08:19;;;;;;;27.40;17.33;;;4.90;1.00;;;;;;4998732;28;20223;-79
2022/01/25 06:10:45;;;;;;;29.70;17.45;;;4.90;1.00;;;;;;5004618;28;20231;-81
2022/01/25 06:13:12;;;;;;;28.20;16.40;;;4.90;1.00;;;;;;5004467;28;20314;-79
2022/01/25 06:15:40;;;;;;;27.10;16.27;;;4.90;1.00;;;;;;5006729;28;20263;-79
2022/01/25 06:18:07;;;;;;;28.70;18.50;;;4.80;1.00;;;;;;5003883;28;20351;-79
2022/01/25 06:20:35;;;;;;;30.88;17.85;;;4.90;1.00;;;;;;5000306;28;20728;-78
2022/01/25 06:23:02;;;;;;;28.23;17.55;;;4.90;1.00;;;;;;4994456;28;20242;-86
2022/01/25 06:25:28;;;;;;;21.63;14.73;;;4.90;1.00;;;;;;5002930;28;20649;-84
2022/01/25 06:27:55;;;;;;;26.52;15.85;;;4.90;1.00;;;;;;4993655;28;20657;-82
2022/01/25 06:30:22;;;;;;;27.50;16.95;;;4.90;1.00;;;;;;4994080;28;20265;-83
2022/01/25 06:32:49;;;;;;;27.50;16.52;;;4.90;1.00;;;;;;5000301;28;20911;-82
2022/01/25 06:35:17;;;;;;;28.23;18.30;;;4.90;1.00;;;;;;4998712;28;20227;-83
2022/01/25 06:37:47;;;;;;;27.73;17.70;;;4.90;1.00;;;;;;4994986;28;20273;-83
2022/01/25 06:40:16;;;;;;;26.60;17.00;;;4.90;1.00;;;;;;4983769;28;20247;-82
2022/01/25 06:42:42;;;;;;;28.85;16.70;;;4.90;1.00;;;;;;5001821;28;20279;-82
2022/01/25 06:45:13;;;;;;;32.13;18.40;;;4.90;1.00;;;;;;5004400;28;20223;-84
2022/01/25 06:47:41;;;;;;;27.38;16.63;;;4.90;1.00;;;;;;4987551;28;20774;-87
2022/01/25 06:50:09;;;;;;;27.63;16.50;;;4.90;1.00;;;;;;5005315;28;20300;-83
2022/01/25 06:52:37;;;;;;;27.73;17.45;;;4.90;1.00;;;;;;5004117;28;20324;-81
2022/01/25 06:55:08;;;;;;;26.67;17.30;;;4.90;1.00;;;;;;4985715;28;20251;-79
2022/01/25 06:57:34;;;;;;;28.77;19.52;;;4.90;1.00;;;;;;5003201;28;20310;-79
2022/01/25 07:00:04;;;;;;;28.25;16.38;;;4.90;1.00;;;;;;4999828;28;20229;-78
2022/01/25 07:02:31;;;;;;;27.98;16.23;;;4.90;1.00;;;;;;5016609;28;20210;-81
2022/01/25 07:04:58;;;;;;;26.27;16.00;;;4.90;1.00;;;;;;5020397;28;20262;-82
2022/01/25 07:07:25;;;;;;;26.15;16.60;;;4.90;1.00;;;;;;4995023;28;20314;-81
2022/01/25 07:09:52;;;;;;;27.52;16.40;;;4.90;1.00;;;;;;4989372;28;20238;-81
2022/01/25 07:12:20;;;;;;;26.50;16.63;;;4.90;1.00;;;;;;4993638;28;20296;-82
2022/01/25 07:14:47;;;;;;;28.13;15.20;;;4.90;1.00;;;;;;5014035;28;20218;-80
2022/01/25 07:17:15;;;;;;;24.88;15.80;;;5.00;1.00;;;;;;5020038;28;20219;-78
2022/01/25 07:19:42;;;;;;;29.50;17.65;;;4.90;1.00;;;;;;5012211;28;20314;-79
2022/01/25 07:22:08;;;;;;;29.33;17.63;;;4.90;1.00;;;;;;4999663;28;21207;-80
2022/01/25 07:24:39;;;;;;;26.77;17.67;;;5.00;1.00;;;;;;5000764;28;20234;-81
2022/01/25 07:27:06;;;;;;;31.90;18.13;;;5.00;1.00;;;;;;4981649;28;20313;-80
2022/01/25 07:29:35;;;;;;;29.33;18.35;;;5.00;1.00;;;;;;4998583;28;20223;-80
2022/01/25 07:32:02;;;;;;;28.08;17.00;;;5.10;1.00;;;;;;5007821;28;20235;-79
2022/01/25 07:34:29;;;;;;;32.50;18.52;;;5.00;1.00;;;;;;5004003;28;20322;-80
2022/01/25 07:36:57;;;;;;;27.60;17.75;;;5.00;1.00;;;;;;5002096;28;21126;-81
2022/01/25 07:39:26;;;;;;;34.13;20.13;;;4.90;1.00;;;;;;5009543;28;20233;-79
2022/01/25 07:41:57;;;;;;;31.10;18.42;;;4.90;1.00;;;;;;4995561;28;20277;-80
2022/01/25 07:44:27;;;;;;;31.02;17.83;;;4.90;1.00;;;;;;4998797;28;20315;-80
2022/01/25 07:46:57;;;;;;;29.58;18.13;;;4.90;1.00;;;;;;5006381;28;20231;-80
2022/01/25 07:49:24;;;;;;;33.40;19.15;;;4.90;1.00;;;;;;5005358;28;21020;-79
2022/01/25 07:51:54;;;;;;;38.42;21.95;;;4.80;1.00;;;;;;5003935;28;20411;-81
2022/01/25 07:54:21;;;;;;;36.60;20.85;;;4.80;1.00;;;;;;5003728;28;20254;-79
2022/01/25 07:56:49;;;;;;;34.45;20.75;;;4.80;1.00;;;;;;5006757;28;20305;-80
2022/01/25 07:59:16;;;;;;;35.20;21.00;;;4.80;1.00;;;;;;5006480;28;20717;-81
2022/01/25 08:01:42;;;;;;;33.75;19.70;;;4.70;1.00;;;;;;5000759;28;20219;-80
2022/01/25 08:04:11;;;;;;;31.95;20.85;;;4.80;1.00;;;;;;5004375;28;21417;-81
2022/01/25 08:06:39;;;;;;;35.58;20.35;;;4.80;1.00;;;;;;5005515;28;20291;-78
2022/01/25 08:09:07;;;;;;;34.80;18.92;;;4.80;1.00;;;;;;4996974;28;20326;-77
2022/01/25 08:11:34;;;;;;;35.35;19.70;;;4.90;1.00;;;;;;5000062;28;20317;-78
2022/01/25 08:14:12;;;;;;;37.88;20.25;;;5.00;1.00;;;;;;4993762;28;20245;-76
2022/01/25 08:16:39;;;;;;;35.22;19.60;;;5.00;1.00;;;;;;4987199;28;20302;-78
2022/01/25 08:19:06;;;;;;;35.75;19.58;;;5.00;1.00;;;;;;4994553;28;20810;-79
2022/01/25 08:21:36;;;;;;;38.80;20.70;;;5.00;1.00;;;;;;4984051;28;20227;-82
2022/01/25 08:24:03;;;;;;;34.47;20.60;;;5.00;1.00;;;;;;4999660;28;20261;-82
2022/01/25 08:26:30;;;;;;;32.90;18.50;;;5.00;1.00;;;;;;4984649;28;21481;-81
2022/01/25 08:28:56;;;;;;;32.33;19.20;;;4.90;1.00;;;;;;4997927;28;21084;-83
2022/01/25 08:31:23;;;;;;;38.33;19.80;;;4.80;1.00;;;;;;4997257;28;20238;-82
2022/01/25 08:33:50;;;;;;;31.88;20.23;;;4.80;1.00;;;;;;5001891;28;20223;-83
2022/01/25 08:36:17;;;;;;;28.10;17.75;;;4.70;1.00;;;;;;4999803;28;20243;-81
2022/01/25 08:38:45;;;;;;;35.25;19.77;;;4.80;1.00;;;;;;5001715;28;20343;-81
2022/01/25 08:41:12;;;;;;;31.92;20.77;;;5.00;1.00;;;;;;4995248;28;20227;-81
2022/01/25 08:43:39;;;;;;;33.95;19.90;;;5.20;1.00;;;;;;4994956;28;20239;-81
2022/01/25 08:46:06;;;;;;;39.42;23.45;;;5.30;1.00;;;;;;4991556;28;20273;-83
2022/01/25 08:48:33;;;;;;;38.97;23.58;;;5.30;1.00;;;;;;4999512;28;20244;-82
2022/01/25 08:51:01;;;;;;;34.72;19.70;;;5.40;1.00;;;;;;4999118;28;20254;-82
2022/01/25 08:53:28;;;;;;;30.58;20.70;;;5.40;1.00;;;;;;5000977;28;20241;-84
2022/01/25 08:55:56;;;;;;;33.72;19.90;;;5.40;1.00;;;;;;4995881;28;20283;-82
2022/01/25 08:58:22;;;;;;;33.30;19.98;;;5.30;1.00;;;;;;5000756;28;21288;-83
2022/01/25 09:00:50;;;;;;;33.13;20.67;;;5.40;1.00;;;;;;4999609;28;21018;-84
2022/01/25 09:03:17;;;;;;;33.47;20.55;;;5.40;1.00;;;;;;4999668;28;20709;-81
2022/01/25 09:05:43;;;;;;;40.05;21.90;;;5.50;1.00;;;;;;4993850;28;20237;-81
2022/01/25 09:08:16;;;;;;;31.40;19.00;;;5.40;1.00;;;;;;4995908;28;20226;-81
2022/01/25 09:10:43;;;;;;;34.85;18.58;;;5.40;1.00;;;;;;4994020;28;20330;-81
2022/01/25 09:13:10;;;;;;;32.50;19.55;;;5.40;1.00;;;;;;5001066;28;21122;-80
2022/01/25 09:15:37;;;;;;;32.20;19.25;;;5.30;1.00;;;;;;5015771;28;20234;-80
2022/01/25 09:18:04;;;;;;;35.70;20.75;;;5.30;1.00;;;;;;5019474;28;20298;-80
2022/01/25 09:20:30;;;;;;;31.40;17.95;;;5.30;1.00;;;;;;5016167;28;20355;-81
2022/01/25 09:22:57;;;;;;;30.45;18.02;;;5.30;1.00;;;;;;5004161;28;20262;-84
2022/01/25 09:25:27;;;;;;;34.30;17.67;;;5.30;1.00;;;;;;4994499;28;20238;-82
2022/01/25 09:27:55;;;;;;;36.63;21.35;;;5.40;1.00;;;;;;4998718;28;20289;-83
2022/01/25 09:30:23;;;;;;;32.95;17.55;;;5.40;1.00;;;;;;4979501;28;20266;-81
2022/01/25 09:32:50;;;;;;;34.00;19.85;;;5.40;1.00;;;;;;5005876;28;20985;-82
2022/01/25 09:35:18;;;;;;;34.28;21.38;;;5.40;1.00;;;;;;4996304;28;20243;-81
2022/01/25 09:37:45;;;;;;;33.05;19.77;;;5.40;1.00;;;;;;5001081;28;21188;-81
2022/01/25 09:40:14;;;;;;;29.55;18.33;;;5.30;1.00;;;;;;5002422;28;20295;-82
2022/01/25 09:42:42;;;;;;;37.35;19.67;;;5.30;1.00;;;;;;4995579;28;20227;-81
2022/01/25 09:45:09;;;;;;;38.10;19.25;;;5.30;1.00;;;;;;4995530;28;20254;-80
2022/01/25 09:47:39;;;;;;;33.63;18.90;;;5.30;1.00;;;;;;5003661;28;20301;-80
2022/01/25 09:50:08;;;;;;;30.55;17.70;;;5.30;1.00;;;;;;4997349;28;20249;-80
2022/01/25 09:52:35;;;;;;;29.48;18.20;;;5.30;1.00;;;;;;4996159;28;20240;-80
2022/01/25 09:55:02;;;;;;;34.03;18.88;;;5.30;1.00;;;;;;4993463;28;20277;-80
2022/01/25 09:57:29;;;;;;;29.33;18.35;;;5.40;1.00;;;;;;4993028;28;20267;-81
2022/01/25 09:59:56;;;;;;;29.33;17.50;;;5.40;1.00;;;;;;4995386;28;20231;-80
2022/01/25 10:02:47;;;;;;;27.15;15.43;;;5.40;1.00;;;;;;4993362;28;20233;-81
2022/01/25 10:05:23;;;;;;;27.30;17.65;;;5.30;1.00;;;;;;4993599;28;20234;-80
2022/01/25 10:07:56;;;;;;;33.22;19.00;;;5.30;1.00;;;;;;4999484;28;20227;-81
2022/01/25 10:10:23;;;;;;;27.85;17.17;;;5.30;1.00;;;;;;4994625;28;20326;-81
2022/01/25 10:12:50;;;;;;;29.10;17.08;;;5.30;1.00;;;;;;4998508;28;20293;-81
2022/01/25 10:15:17;;;;;;;33.25;18.85;;;5.30;1.00;;;;;;4985493;28;20240;-80
2022/01/25 10:17:48;;;;;;;33.08;18.50;;;5.30;1.00;;;;;;5000850;28;20255;-82
2022/01/25 10:20:28;;;;;;;32.35;18.48;;;5.40;1.00;;;;;;5014176;28;20606;-79
2022/01/25 10:22:59;;;;;;;26.13;16.75;;;5.40;1.00;;;;;;5016805;28;20372;-79
2022/01/25 10:25:35;;;;;;;27.60;17.67;;;5.40;1.00;;;;;;5010824;28;20273;-81
2022/01/25 10:28:04;;;;;;;32.17;18.20;;;5.50;1.00;;;;;;5015777;28;20258;-82
2022/01/25 10:30:33;;;;;;;27.70;16.73;;;5.60;1.00;;;;;;5005852;28;20245;-80
2022/01/25 10:33:15;;;;;;;27.33;15.70;;;5.50;1.00;;;;;;5000153;28;20247;-78
2022/01/25 10:35:42;;;;;;;26.48;16.33;;;5.40;1.00;;;;;;5002737;28;21803;-80
2022/01/25 10:38:18;;;;;;;25.08;15.13;;;5.40;1.00;;;;;;4996979;28;20230;-80
2022/01/25 10:40:52;;;;;;;25.90;15.75;;;5.40;1.00;;;;;;5000810;28;20769;-79
2022/01/25 10:43:22;;;;;;;25.30;15.93;;;5.40;1.00;;;;;;4997678;28;20294;-80
2022/01/25 10:46:23;;;;;;;28.30;16.08;;;5.30;1.00;;;;;;5001283;28;20230;-78
2022/01/25 10:48:53;;;;;;;25.60;14.60;;;5.30;1.00;;;;;;5000639;28;20227;-81
2022/01/25 10:51:23;;;;;;;23.85;15.10;;;5.30;1.00;;;;;;5013815;28;20247;-80
2022/01/25 10:54:02;;;;;;;24.48;14.52;;;5.30;1.00;;;;;;5001362;28;20360;-80
2022/01/25 10:56:35;;;;;;;22.20;15.68;;;5.20;1.00;;;;;;4999046;28;20215;-82
2022/01/25 10:59:05;;;;;;;28.00;15.13;;;5.20;1.00;;;;;;5007122;28;20309;-82
2022/01/25 11:01:33;;;;;;;27.52;17.58;;;5.20;1.00;;;;;;5003279;28;20220;-81
2022/01/25 11:04:07;;;;;;;25.25;15.82;;;5.10;1.00;;;;;;5021612;28;20314;-82
2022/01/25 11:06:35;;;;;;;26.08;15.77;;;5.20;1.00;;;;;;5015368;28;20283;-81
2022/01/25 11:09:04;;;;;;;28.92;18.05;;;5.40;1.00;;;;;;5004689;28;20308;-83
2022/01/25 11:11:34;;;;;;;27.75;15.70;;;5.50;1.00;;;;;;4999345;28;20297;-82
2022/01/25 11:14:50;;;;;;;28.30;17.67;;;5.60;1.00;;;;;;5004857;28;20261;-81
2022/01/25 11:16:50;;;;;;;27.38;15.77;;;5.50;1.00;;;;;;5019145;28;20271;-85
2022/01/25 11:19:18;;;;;;;26.83;15.05;;;5.50;1.00;;;;;;5025251;28;20199;-85
2022/01/25 11:21:45;;;;;;;24.75;14.00;;;5.50;1.00;;;;;;5021559;28;20236;-85
2022/01/25 11:24:13;;;;;;;22.70;14.05;;;5.50;1.00;;;;;;5005244;28;20240;-85
2022/01/25 11:26:42;;;;;;;25.65;16.10;;;5.50;1.00;;;;;;5018647;28;20234;-86
2022/01/25 11:29:10;;;;;;;22.95;14.35;;;5.60;1.00;;;;;;5006480;28;21013;-85
2022/01/25 11:31:41;;;;;;;24.48;14.73;;;5.60;1.00;;;;;;5010428;28;20310;-84
2022/01/25 11:34:11;;;;;;;25.05;15.35;;;5.70;1.00;;;;;;5013249;28;20223;-85
2022/01/25 11:36:51;;;;;;;25.70;13.77;;;5.60;1.00;;;;;;5018658;28;20255;-83
2022/01/25 11:39:21;;;;;;;25.98;13.90;;;5.60;1.00;;;;;;5007001;28;20474;-84
2022/01/25 11:41:48;;;;;;;24.60;13.73;;;5.60;1.00;;;;;;5000737;28;20237;-85
2022/01/25 11:44:18;;;;;;;21.95;14.40;;;5.70;1.00;;;;;;4998170;28;20231;-82
2022/01/25 11:46:50;;;;;;;23.00;13.85;;;5.70;1.00;;;;;;5002105;28;20228;-82
2022/01/25 11:49:20;;;;;;;23.35;13.80;;;5.70;1.00;;;;;;5001959;28;20230;-81
2022/01/25 11:52:06;;;;;;;21.98;12.57;;;5.70;1.00;;;;;;4998387;28;20263;-82
2022/01/25 11:54:35;;;;;;;22.38;15.05;;;5.70;1.00;;;;;;5003214;28;20233;-82
2022/01/25 11:57:11;;;;;;;20.95;12.55;;;5.70;1.00;;;;;;5017326;28;20279;-82
2022/01/25 11:59:38;;;;;;;22.92;14.45;;;5.80;1.00;;;;;;5012733;28;20227;-83
2022/01/25 12:02:05;;;;;;;21.92;13.88;;;5.90;1.00;;;;;;5007315;28;20608;-83
2022/01/25 12:04:32;;;;;;;18.52;12.27;;;5.90;1.00;;;;;;5001630;28;20232;-81
2022/01/25 12:07:08;;;;;;;17.00;11.50;;;6.00;1.00;;;;;;5001868;28;20290;-82
2022/01/25 12:09:46;;;;;;;20.70;12.73;;;6.00;1.00;;;;;;4984266;28;20233;-83
2022/01/25 12:12:15;;;;;;;16.50;11.38;;;5.90;1.00;;;;;;5005193;28;24874;-85
2022/01/25 12:14:45;;;;;;;20.52;11.98;;;5.90;1.00;;;;;;5003501;28;20227;-82
2022/01/25 12:17:14;;;;;;;42.03;23.85;;;5.90;1.00;;;;;;5007491;28;20715;-83
2022/01/25 12:19:44;;;;;;;19.52;12.25;;;6.00;1.00;;;;;;5002340;28;20218;-82
2022/01/25 12:22:16;;;;;;;20.40;13.20;;;6.00;1.00;;;;;;5000645;28;20231;-84
2022/01/25 12:25:00;;;;;;;20.90;12.57;;;6.00;1.00;;;;;;5013055;28;20429;-82
2022/01/25 12:27:45;;;;;;;20.55;13.75;;;6.00;1.00;;;;;;5019659;28;20309;-83
2022/01/25 12:30:18;;;;;;;17.92;11.45;;;6.00;1.00;;;;;;5024197;28;20208;-82
2022/01/25 12:33:00;;;;;;;20.45;12.25;;;6.00;1.00;;;;;;5018564;28;20696;-84
2022/01/25 12:35:38;;;;;;;20.45;13.15;;;6.10;1.00;;;;;;5003969;28;20293;-83
2022/01/25 12:38:09;;;;;;;18.67;12.30;;;6.10;1.00;;;;;;5001289;28;20238;-82
2022/01/25 12:40:55;;;;;;;18.63;12.10;;;6.10;1.00;;;;;;5000197;28;20216;-82
2022/01/25 12:43:24;;;;;;;18.08;12.43;;;6.10;1.00;;;;;;5007127;28;20219;-83
2022/01/25 12:45:55;;;;;;;18.52;12.20;;;6.00;1.00;;;;;;4998936;28;20294;-85
2022/01/25 12:48:27;;;;;;;23.33;16.00;;;5.90;1.00;;;;;;5000586;28;20223;-85
2022/01/25 12:50:55;;;;;;;18.50;12.02;;;5.90;1.00;;;;;;5003737;28;21087;-84
2022/01/25 12:53:25;;;;;;;19.30;13.15;;;6.00;1.00;;;;;;4997165;28;20237;-83
2022/01/25 12:55:54;;;;;;;19.15;11.50;;;6.00;1.00;;;;;;5000703;28;20240;-84
2022/01/25 12:58:24;;;;;;;21.33;12.10;;;6.00;1.00;;;;;;5002942;28;20226;-83
2022/01/25 13:00:53;;;;;;;18.65;11.63;;;6.00;1.00;;;;;;5002066;28;20326;-82
2022/01/25 13:03:28;;;;;;;21.88;12.85;;;6.10;1.00;;;;;;5017119;28;20223;-82
2022/01/25 13:05:57;;;;;;;20.55;13.18;;;6.10;1.00;;;;;;4997273;28;20417;-81
2022/01/25 13:08:29;;;;;;;22.30;12.57;;;6.10;1.00;;;;;;5009157;28;20223;-83
2022/01/25 13:11:17;;;;;;;21.02;13.20;;;6.10;1.00;;;;;;4979930;28;20250;-83
2022/01/25 13:13:59;;;;;;;24.77;14.77;;;6.10;1.00;;;;;;4999922;28;20251;-82
2022/01/25 13:16:41;;;;;;;21.40;13.00;;;6.00;1.00;;;;;;4988306;28;20411;-83
2022/01/25 13:19:18;;;;;;;23.27;16.27;;;6.00;1.00;;;;;;4981005;28;20223;-84
2022/01/25 13:21:50;;;;;;;25.30;15.23;;;6.00;1.00;;;;;;4981352;28;20269;-83
2022/01/25 13:24:25;;;;;;;24.60;15.63;;;6.00;1.00;;;;;;4998696;28;20238;-83
2022/01/25 13:26:55;;;;;;;25.70;15.93;;;6.10;1.00;;;;;;5000937;28;20254;-84
2022/01/25 13:32:27;;;;;;;27.08;14.50;;;6.00;1.00;;;;;;5004950;28;20302;-82
2022/01/25 13:35:03;;;;;;;26.38;15.80;;;6.00;1.00;;;;;;4995274;28;20770;-84
2022/01/25 13:37:33;;;;;;;24.83;16.33;;;6.00;1.00;;;;;;5004659;28;20215;-83
2022/01/25 13:40:03;;;;;;;24.58;15.63;;;6.00;1.00;;;;;;4979481;28;21098;-83
2022/01/25 13:42:40;;;;;;;26.10;17.50;;;5.90;1.00;;;;;;5004989;28;20223;-83
2022/01/25 13:48:06;;;;;;;29.48;16.95;;;6.00;1.00;;;;;;5001050;28;20235;-84
2022/01/25 13:50:34;;;;;;;26.48;15.05;;;6.00;1.00;;;;;;5005142;28;20325;-83
2022/01/25 13:53:01;;;;;;;27.50;16.25;;;6.00;1.00;;;;;;5007680;28;20243;-83
2022/01/25 13:55:29;;;;;;;24.33;15.95;;;6.10;1.00;;;;;;4990373;28;20234;-83
2022/01/25 13:57:58;;;;;;;26.45;16.02;;;6.10;1.00;;;;;;5007751;28;20914;-84
2022/01/25 14:00:26;;;;;;;24.23;16.48;;;6.00;1.00;;;;;;5021904;28;20219;-85
2022/01/25 14:02:55;;;;;;;29.10;15.40;;;6.00;1.00;;;;;;5013081;28;20239;-82
2022/01/25 14:05:22;;;;;;;29.90;16.80;;;5.90;1.00;;;;;;5013568;28;20235;-83
2022/01/25 14:07:52;;;;;;;25.25;15.75;;;5.90;1.00;;;;;;5010230;28;20229;-83
2022/01/25 14:10:25;;;;;;;25.90;16.88;;;5.80;1.00;;;;;;5007164;28;20235;-83
2022/01/25 14:23:55;;;;;;;26.77;16.02;;;5.80;1.00;;;;;;5007971;28;20308;-84
2022/01/25 14:26:28;;;;;;;25.70;15.20;;;5.90;1.00;;;;;;5013459;28;20789;-84
2022/01/25 14:29:06;;;;;;;22.23;13.25;;;5.90;1.00;;;;;;5011033;28;20218;-85